createdAt,value
2019-02-19T00:00:01.219Z,13.30
2019-02-19T00:02:30.557Z,10.80
2019-02-19T00:04:59.865Z,13.40
2019-02-19T00:07:29.103Z,11.18
2019-02-19T00:09:58.385Z,11.25
2019-02-19T00:12:27.809Z,11.93
2019-02-19T00:14:56.857Z,9.48
2019-02-19T00:17:26.064Z,12.75
2019-02-19T00:19:55.615Z,9.80
2019-02-19T00:22:24.966Z,12.50
2019-02-19T00:24:54.211Z,11.65
2019-02-19T00:27:23.463Z,11.18
2019-02-19T00:29:52.809Z,11.80
2019-02-19T00:32:24.414Z,13.80
2019-02-19T00:34:53.164Z,12.35
2019-02-19T00:37:22.018Z,12.68
2019-02-19T00:39:51.844Z,13.18
2019-02-19T00:42:20.690Z,12.60
2019-02-19T00:44:49.550Z,15.60
2019-02-19T00:47:18.319Z,18.52
2019-02-19T00:49:54.104Z,15.85
2019-02-19T00:55:11.291Z,15.48
2019-02-19T00:57:40.979Z,21.52
2019-02-19T01:00:11.922Z,12.40
2019-02-19T01:02:42.094Z,12.18
2019-02-19T01:05:11.751Z,15.80
2019-02-19T01:07:43.801Z,16.17
2019-02-19T01:10:13.764Z,15.80
2019-02-19T01:12:43.670Z,13.55
2019-02-19T01:15:12.728Z,18.15
2019-02-19T01:17:45.755Z,16.82
2019-02-19T01:20:23.221Z,23.57
2019-02-19T01:22:51.894Z,17.52
2019-02-19T01:25:23.071Z,21.87
2019-02-19T01:27:52.135Z,20.25
2019-02-19T01:30:23.324Z,21.12
2019-02-19T01:32:52.360Z,20.08
2019-02-19T01:35:21.541Z,29.77
2019-02-19T01:37:50.742Z,26.82
2019-02-19T01:40:19.866Z,54.45
2019-02-19T01:42:49.138Z,28.20
2019-02-19T01:45:18.727Z,24.55
2019-02-19T01:47:47.854Z,21.60
2019-02-19T01:50:16.942Z,28.92
2019-02-19T01:52:46.137Z,26.48
2019-02-19T01:55:16.327Z,25.60
2019-02-19T01:57:45.949Z,21.75
2019-02-19T02:00:14.789Z,20.43
2019-02-19T02:02:48.379Z,21.70
2019-02-19T02:05:21.587Z,20.17
2019-02-19T02:07:51.506Z,19.12
2019-02-19T02:10:22.201Z,19.37
2019-02-19T02:12:54.246Z,17.95
2019-02-19T02:15:25.662Z,18.42
2019-02-19T02:17:55.988Z,39.58
2019-02-19T02:20:25.505Z,25.72
2019-02-19T02:22:54.861Z,47.90
2019-02-19T02:25:24.126Z,70.57
2019-02-19T02:27:53.748Z,57.88
2019-02-19T02:30:23.060Z,46.48
2019-02-19T02:32:52.332Z,23.83
2019-02-19T02:35:22.616Z,24.20
2019-02-19T02:37:51.739Z,21.48
2019-02-19T02:40:20.944Z,25.62
2019-02-19T02:42:50.012Z,27.30
2019-02-19T02:45:19.272Z,41.50
2019-02-19T02:47:48.532Z,29.65
2019-02-19T02:50:17.184Z,72.30
2019-02-19T02:52:45.947Z,92.92
2019-02-19T02:55:15.720Z,121.72
2019-02-19T02:57:45.181Z,90.22
2019-02-19T03:00:14.739Z,57.35
2019-02-19T03:02:44.029Z,31.20
2019-02-19T03:05:14.121Z,25.08
2019-02-19T03:07:51.011Z,27.98
2019-02-19T03:10:20.682Z,54.00
2019-02-19T03:12:49.747Z,27.87
2019-02-19T03:15:19.528Z,22.55
2019-02-19T03:17:49.352Z,56.73
2019-02-19T03:20:19.247Z,67.72
2019-02-19T03:22:50.228Z,37.25
2019-02-19T03:25:19.858Z,79.72
2019-02-19T03:27:48.742Z,101.05
2019-02-19T03:30:18.119Z,113.57
2019-02-19T03:32:47.804Z,90.12
2019-02-19T03:35:17.654Z,85.45
2019-02-19T03:37:46.834Z,63.13
2019-02-19T03:40:16.579Z,50.85
2019-02-19T03:42:46.039Z,53.83
2019-02-19T03:45:15.432Z,32.00
2019-02-19T03:47:45.242Z,25.92
2019-02-19T03:50:14.948Z,28.00
2019-02-19T03:52:44.681Z,22.45
2019-02-19T03:55:14.142Z,21.00
2019-02-19T03:57:43.546Z,18.55
2019-02-19T04:00:13.200Z,19.70
2019-02-19T04:02:42.872Z,19.07
2019-02-19T04:05:12.918Z,20.65
2019-02-19T04:07:42.607Z,18.05
2019-02-19T04:10:11.692Z,20.85
2019-02-19T04:12:40.879Z,28.45
2019-02-19T04:15:10.611Z,44.90
2019-02-19T04:17:39.797Z,43.40
2019-02-19T04:20:09.478Z,40.98
2019-02-19T04:22:38.483Z,40.65
2019-02-19T04:25:07.978Z,34.80
2019-02-19T04:27:38.369Z,35.63
2019-02-19T04:30:08.712Z,56.45
2019-02-19T04:32:38.035Z,40.90
2019-02-19T04:35:07.848Z,34.20
2019-02-19T04:37:37.252Z,34.48
2019-02-19T04:40:07.654Z,30.05
2019-02-19T04:42:37.305Z,28.95
2019-02-19T04:45:06.920Z,25.17
2019-02-19T04:47:36.316Z,29.50
2019-02-19T04:50:07.028Z,23.35
2019-02-19T04:52:36.380Z,30.15
2019-02-19T04:55:06.877Z,27.13
2019-02-19T04:57:37.284Z,28.80
2019-02-19T05:00:11.864Z,22.82
2019-02-19T05:02:40.658Z,23.22
2019-02-19T05:05:09.616Z,21.68
2019-02-19T05:07:38.971Z,45.12
2019-02-19T05:10:09.238Z,47.33
2019-02-19T05:12:38.662Z,49.80
2019-02-19T05:15:10.672Z,48.90
2019-02-19T05:17:39.821Z,48.20
2019-02-19T05:20:10.140Z,51.65
2019-02-19T05:22:39.557Z,36.23
2019-02-19T05:25:09.460Z,65.15
2019-02-19T05:27:39.268Z,93.67
2019-02-19T05:30:11.759Z,214.30
2019-02-19T05:32:41.420Z,199.05
2019-02-19T05:35:10.648Z,252.78
2019-02-19T05:37:40.164Z,167.47
2019-02-19T05:40:09.867Z,196.87
2019-02-19T05:42:38.614Z,115.05
2019-02-19T05:45:10.640Z,86.50
2019-02-19T05:47:39.432Z,129.50
2019-02-19T05:50:09.307Z,194.72
2019-02-19T05:52:38.081Z,149.32
2019-02-19T05:55:08.002Z,68.70
2019-02-19T05:57:37.931Z,34.98
2019-02-19T06:00:09.930Z,37.58
2019-02-19T06:02:39.604Z,40.73
2019-02-19T06:05:10.184Z,36.40
2019-02-19T06:07:39.753Z,26.90
2019-02-19T06:10:12.717Z,30.27
2019-02-19T06:12:42.370Z,29.90
2019-02-19T06:15:14.723Z,26.60
2019-02-19T06:17:44.219Z,32.75
2019-02-19T06:20:13.721Z,36.58
2019-02-19T06:22:43.489Z,53.05
2019-02-19T06:25:12.971Z,46.40
2019-02-19T06:27:42.025Z,39.90
2019-02-19T06:30:12.680Z,62.80
2019-02-19T06:32:41.550Z,60.70
2019-02-19T06:35:10.315Z,59.45
2019-02-19T06:37:39.626Z,51.95
2019-02-19T06:40:27.364Z,52.58
2019-02-19T06:42:56.948Z,39.73
2019-02-19T06:45:26.161Z,65.20
2019-02-19T06:47:55.492Z,62.85
2019-02-19T06:50:25.934Z,59.13
2019-02-19T06:52:55.384Z,87.37
2019-02-19T06:55:24.910Z,108.75
2019-02-19T06:57:55.284Z,108.67
2019-02-19T07:00:24.698Z,72.60
2019-02-19T07:03:07.740Z,75.45
2019-02-19T07:05:36.909Z,57.80
2019-02-19T07:08:06.142Z,69.90
2019-02-19T07:10:35.261Z,82.02
2019-02-19T07:13:03.998Z,81.60
2019-02-19T07:15:32.640Z,75.65
2019-02-19T07:18:01.416Z,85.42
2019-02-19T07:20:30.096Z,82.30
2019-02-19T07:22:59.485Z,78.17
2019-02-19T07:25:28.605Z,101.82
2019-02-19T07:27:57.767Z,101.30
2019-02-19T07:30:27.270Z,80.45
2019-02-19T07:32:57.107Z,55.75
2019-02-19T07:35:26.360Z,76.67
2019-02-19T07:37:55.787Z,69.77
2019-02-19T07:40:25.113Z,123.33
2019-02-19T07:42:54.585Z,127.75
2019-02-19T07:45:24.346Z,127.75
2019-02-19T07:47:53.690Z,66.00
2019-02-19T07:50:23.116Z,96.82
2019-02-19T07:52:52.196Z,58.33
2019-02-19T07:55:20.892Z,49.23
2019-02-19T07:57:49.642Z,39.27
2019-02-19T08:00:18.388Z,34.88
2019-02-19T08:02:47.246Z,39.70
2019-02-19T08:05:16.424Z,39.78
2019-02-19T08:07:45.527Z,38.55
2019-02-19T08:10:14.851Z,45.17
2019-02-19T08:12:44.201Z,42.33
2019-02-19T08:15:13.240Z,41.65
2019-02-19T08:17:42.671Z,43.80
2019-02-19T08:20:15.928Z,43.20
2019-02-19T08:22:42.747Z,40.03
2019-02-19T08:25:11.966Z,39.80
2019-02-19T08:27:41.416Z,42.08
2019-02-19T08:30:11.270Z,42.67
2019-02-19T08:32:42.411Z,46.18
2019-02-19T08:35:11.371Z,43.42
2019-02-19T08:37:40.608Z,42.23
2019-02-19T08:40:10.386Z,44.38
2019-02-19T08:42:39.012Z,55.17
2019-02-19T08:45:09.258Z,59.73
2019-02-19T08:47:42.596Z,59.20
2019-02-19T08:50:08.566Z,67.05
2019-02-19T08:52:38.068Z,71.10
2019-02-19T08:55:07.828Z,63.78
2019-02-19T08:57:36.911Z,56.73
2019-02-19T09:00:09.689Z,54.83
2019-02-19T09:02:39.523Z,51.48
2019-02-19T09:05:08.928Z,42.70
2019-02-19T09:07:38.146Z,37.50
2019-02-19T09:10:11.678Z,40.83
2019-02-19T09:12:40.845Z,35.50
2019-02-19T09:15:11.515Z,39.08
2019-02-19T09:17:40.677Z,34.05
2019-02-19T09:20:10.419Z,33.55
2019-02-19T09:22:39.534Z,35.95
2019-02-19T09:25:09.271Z,33.53
2019-02-19T09:27:38.441Z,31.65
2019-02-19T09:30:10.064Z,33.15
2019-02-19T09:32:39.453Z,32.90
2019-02-19T09:35:09.188Z,33.53
2019-02-19T09:37:38.515Z,32.70
2019-02-19T09:40:09.480Z,25.60
2019-02-19T09:42:38.790Z,33.90
2019-02-19T09:45:09.365Z,27.52
2019-02-19T09:47:38.379Z,44.63
2019-02-19T09:50:11.794Z,71.10
2019-02-19T09:52:40.763Z,39.20
2019-02-19T09:55:09.867Z,38.80
2019-02-19T09:57:39.366Z,30.52
2019-02-19T10:00:11.100Z,32.28
2019-02-19T10:02:40.176Z,28.20
2019-02-19T10:05:10.908Z,28.52
2019-02-19T10:07:40.356Z,25.75
2019-02-19T10:10:11.441Z,29.95
2019-02-19T10:12:40.044Z,33.42
2019-02-19T10:15:13.302Z,30.48
2019-02-19T10:17:41.931Z,22.22
2019-02-19T10:20:11.355Z,25.10
2019-02-19T10:22:40.608Z,24.95
2019-02-19T10:25:14.555Z,25.40
2019-02-19T10:27:43.771Z,26.60
2019-02-19T10:30:19.783Z,22.35
2019-02-19T10:32:48.943Z,32.50
2019-02-19T10:35:18.655Z,30.35
2019-02-19T10:37:48.712Z,26.40
2019-02-19T10:40:19.681Z,29.77
2019-02-19T10:42:48.853Z,27.65
2019-02-19T10:45:25.974Z,28.23
2019-02-19T10:47:55.256Z,26.30
2019-02-19T10:50:24.654Z,24.27
2019-02-19T10:52:54.228Z,26.65
2019-02-19T10:55:22.939Z,27.73
2019-02-19T10:57:51.555Z,26.42
2019-02-19T11:00:22.700Z,25.17
2019-02-19T11:02:51.583Z,29.82
2019-02-19T11:05:20.861Z,27.35
2019-02-19T11:07:49.982Z,28.02
2019-02-19T11:10:19.261Z,28.75
2019-02-19T11:12:48.836Z,28.20
2019-02-19T11:15:18.108Z,28.10
2019-02-19T11:17:47.388Z,26.05
2019-02-19T11:20:19.145Z,27.22
2019-02-19T11:22:48.335Z,30.60
2019-02-19T11:25:17.387Z,26.48
2019-02-19T11:27:46.186Z,20.95
2019-02-19T11:30:16.626Z,25.43
2019-02-19T11:32:45.895Z,24.72
2019-02-19T11:35:14.780Z,23.95
2019-02-19T11:37:44.452Z,20.25
2019-02-19T11:40:14.210Z,25.30
2019-02-19T11:42:43.426Z,22.22
2019-02-19T11:45:17.921Z,24.12
2019-02-19T11:47:47.143Z,22.13
2019-02-19T11:50:16.028Z,21.35
2019-02-19T11:52:45.147Z,23.32
2019-02-19T11:55:16.612Z,21.30
2019-02-19T11:57:45.797Z,23.22
2019-02-19T12:00:17.929Z,24.52
2019-02-19T12:02:47.037Z,18.82
2019-02-19T12:05:16.324Z,23.42
2019-02-19T12:07:45.773Z,22.73
2019-02-19T12:10:15.367Z,19.37
2019-02-19T12:12:45.545Z,24.40
2019-02-19T12:15:14.999Z,23.65
2019-02-19T12:17:45.086Z,19.20
2019-02-19T12:20:14.665Z,22.10
2019-02-19T12:22:43.385Z,24.90
2019-02-19T12:25:12.213Z,27.27
2019-02-19T12:27:40.844Z,23.32
2019-02-19T12:30:18.820Z,22.95
2019-02-19T12:32:47.553Z,24.55
2019-02-19T12:35:16.602Z,20.40
2019-02-19T12:37:45.758Z,20.35
2019-02-19T12:40:14.993Z,22.35
2019-02-19T12:42:44.103Z,21.15
2019-02-19T12:45:17.561Z,21.87
2019-02-19T12:47:46.811Z,20.95
2019-02-19T12:50:16.930Z,21.40
2019-02-19T12:52:46.566Z,23.42
2019-02-19T12:55:16.382Z,20.68
2019-02-19T12:57:45.770Z,24.10
2019-02-19T13:00:17.159Z,22.93
2019-02-19T13:02:46.405Z,20.45
2019-02-19T13:05:16.163Z,16.97
2019-02-19T13:07:44.829Z,16.70
2019-02-19T13:10:13.657Z,16.87
2019-02-19T13:12:42.291Z,17.52
2019-02-19T13:15:18.893Z,16.55
2019-02-19T13:17:47.928Z,20.05
2019-02-19T13:20:16.919Z,18.05
2019-02-19T13:22:46.333Z,17.98
2019-02-19T13:25:15.410Z,18.82
2019-02-19T13:27:44.762Z,20.70
2019-02-19T13:30:18.920Z,19.62
2019-02-19T13:32:48.516Z,18.48
2019-02-19T13:35:18.107Z,20.82
2019-02-19T13:37:47.467Z,20.65
2019-02-19T13:40:18.118Z,20.72
2019-02-19T13:42:47.472Z,21.77
2019-02-19T13:45:17.070Z,24.65
2019-02-19T13:47:46.148Z,25.17
2019-02-19T13:50:21.277Z,26.33
2019-02-19T13:52:57.605Z,26.50
2019-02-19T13:55:27.946Z,24.75
2019-02-19T13:57:57.571Z,27.05
2019-02-19T14:00:28.399Z,26.15
2019-02-19T14:02:57.853Z,26.80
2019-02-19T14:05:27.471Z,23.30
2019-02-19T14:07:56.874Z,25.08
2019-02-19T14:10:26.102Z,27.15
2019-02-19T14:12:55.334Z,27.42
2019-02-19T14:15:32.094Z,28.32
2019-02-19T14:18:02.610Z,39.55
2019-02-19T14:20:37.416Z,29.98
2019-02-19T14:23:13.509Z,33.35
2019-02-19T14:25:44.568Z,34.85
2019-02-19T14:28:32.373Z,29.37
2019-02-19T14:31:05.880Z,31.05
2019-02-19T14:33:39.220Z,25.60
2019-02-19T14:36:09.475Z,26.42
2019-02-19T14:38:45.293Z,33.38
2019-02-19T14:41:24.383Z,28.55
2019-02-19T14:44:10.674Z,23.02
2019-02-19T14:46:44.490Z,23.12
2019-02-19T14:49:15.292Z,21.82
2019-02-19T14:51:55.576Z,21.07
2019-02-19T14:54:42.699Z,21.80
2019-02-19T14:57:22.936Z,20.68
2019-02-19T15:00:10.172Z,30.12
2019-02-19T15:02:43.494Z,25.43
2019-02-19T15:05:20.154Z,26.52
2019-02-19T15:08:02.935Z,23.35
2019-02-19T15:10:39.423Z,17.75
2019-02-19T15:13:13.020Z,22.62
2019-02-19T15:15:50.294Z,24.37
2019-02-19T15:18:37.368Z,18.07
2019-02-19T15:21:14.026Z,18.60
2019-02-19T15:23:46.880Z,18.10
2019-02-19T15:26:35.404Z,21.30
2019-02-19T15:29:05.808Z,21.17
2019-02-19T15:31:53.459Z,21.68
2019-02-19T15:34:39.459Z,22.67
2019-02-19T15:37:19.316Z,21.48
2019-02-19T15:39:50.273Z,28.62
2019-02-19T15:42:37.567Z,58.65
2019-02-19T15:45:12.816Z,22.02
2019-02-19T15:47:52.748Z,24.00
2019-02-19T15:50:35.972Z,32.58
2019-02-19T15:53:06.711Z,20.60
2019-02-19T15:55:38.369Z,17.27
2019-02-19T15:58:09.105Z,16.17
2019-02-19T16:00:41.085Z,16.05
2019-02-19T16:03:12.100Z,16.73
2019-02-19T16:05:46.116Z,15.72
2019-02-19T16:08:31.295Z,20.10
2019-02-19T16:11:01.561Z,14.80
2019-02-19T16:13:31.707Z,17.27
2019-02-19T16:16:11.310Z,15.83
2019-02-19T16:18:54.402Z,20.00
2019-02-19T16:21:30.917Z,15.40
2019-02-19T16:24:16.755Z,18.67
2019-02-19T16:26:53.548Z,18.30
2019-02-19T16:29:24.786Z,16.17
2019-02-19T16:32:02.207Z,15.40
2019-02-19T16:34:33.082Z,15.35
2019-02-19T16:37:17.212Z,15.83
2019-02-19T16:39:56.899Z,15.25
2019-02-19T16:42:27.727Z,16.97
2019-02-19T16:45:07.346Z,16.77
2019-02-19T16:47:54.773Z,12.40
2019-02-19T16:50:25.600Z,14.15
2019-02-19T16:53:02.466Z,15.90
2019-02-19T16:55:32.695Z,13.60
2019-02-19T16:58:02.845Z,15.13
2019-02-19T17:00:39.499Z,12.47
2019-02-19T17:03:10.109Z,20.57
2019-02-19T17:05:54.245Z,14.33
2019-02-19T17:08:30.661Z,14.45
2019-02-19T17:11:04.395Z,15.38
2019-02-19T17:13:35.282Z,12.80
2019-02-19T17:16:09.081Z,14.45
2019-02-19T17:18:40.024Z,12.33
2019-02-19T17:21:22.917Z,12.43
2019-02-19T17:24:10.287Z,12.25
2019-02-19T17:26:43.763Z,15.25
2019-02-19T17:29:14.488Z,20.68
2019-02-19T17:31:51.494Z,14.60
2019-02-19T17:34:36.884Z,13.32
2019-02-19T17:37:07.322Z,13.15
2019-02-19T17:39:40.790Z,16.95
2019-02-19T17:42:10.950Z,14.90
2019-02-19T17:44:41.838Z,13.70
2019-02-19T17:47:15.183Z,13.00
2019-02-19T17:49:45.953Z,12.70
2019-02-19T17:52:22.496Z,10.48
2019-02-19T17:54:59.710Z,10.35
2019-02-19T17:57:42.322Z,10.38
2019-02-19T18:00:14.613Z,12.30
2019-02-19T18:02:48.415Z,14.70
2019-02-19T18:05:19.675Z,11.88
2019-02-19T18:07:50.658Z,12.30
2019-02-19T18:10:24.055Z,9.88
2019-02-19T18:12:57.607Z,12.37
2019-02-19T18:15:28.524Z,10.10
2019-02-19T18:17:59.265Z,9.75
2019-02-19T18:20:28.514Z,8.30
2019-02-19T18:22:58.026Z,8.50
2019-02-19T18:25:26.651Z,9.38
2019-02-19T18:27:55.199Z,12.30
2019-02-19T18:30:24.579Z,8.70
2019-02-19T18:32:53.728Z,8.95
2019-02-19T18:35:22.960Z,9.35
2019-02-19T18:37:52.249Z,10.23
2019-02-19T18:40:22.844Z,9.38
2019-02-19T18:42:52.845Z,8.18
2019-02-19T18:45:21.896Z,9.43
2019-02-19T18:47:51.069Z,10.13
2019-02-19T18:50:21.192Z,11.50
2019-02-19T18:52:50.721Z,8.63
2019-02-19T18:55:19.978Z,7.87
2019-02-19T18:57:49.125Z,9.08
2019-02-19T19:00:18.219Z,8.03
2019-02-19T19:02:46.955Z,10.98
2019-02-19T19:05:15.638Z,7.75
2019-02-19T19:07:44.358Z,7.40
2019-02-19T19:10:13.211Z,12.00
2019-02-19T19:12:42.652Z,9.58
2019-02-19T19:15:11.503Z,7.10
2019-02-19T19:17:40.606Z,7.28
2019-02-19T19:20:12.302Z,6.50
2019-02-19T19:22:42.983Z,7.12
2019-02-19T19:25:12.424Z,5.55
2019-02-19T19:27:41.504Z,7.92
2019-02-19T19:30:14.640Z,6.05
2019-02-19T19:32:43.694Z,6.85
2019-02-19T19:35:14.431Z,6.72
2019-02-19T19:37:43.646Z,8.18
2019-02-19T19:40:13.191Z,6.15
2019-02-19T19:42:43.643Z,6.35
2019-02-19T19:45:12.733Z,6.00
2019-02-19T19:47:41.704Z,7.12
2019-02-19T19:50:11.538Z,8.68
2019-02-19T19:52:41.069Z,6.85
2019-02-19T19:55:11.152Z,5.85
2019-02-19T19:57:40.666Z,7.10
2019-02-19T20:00:14.303Z,7.25
2019-02-19T20:02:43.676Z,6.70
2019-02-19T20:05:12.752Z,7.97
2019-02-19T20:07:41.994Z,6.42
2019-02-19T20:10:13.359Z,6.92
2019-02-19T20:12:42.706Z,7.50
2019-02-19T20:15:12.339Z,5.12
2019-02-19T20:17:42.878Z,6.42
2019-02-19T20:20:12.382Z,6.00
2019-02-19T20:22:41.681Z,6.75
2019-02-19T20:25:14.465Z,7.37
2019-02-19T20:27:43.634Z,5.87
2019-02-19T20:30:16.563Z,5.80
2019-02-19T20:32:45.323Z,6.72
2019-02-19T20:35:13.971Z,8.18
2019-02-19T20:37:42.704Z,6.25
2019-02-19T20:40:12.193Z,6.15
2019-02-19T20:42:41.245Z,6.50
2019-02-19T20:45:12.777Z,5.42
2019-02-19T20:47:42.057Z,11.05
2019-02-19T20:50:14.542Z,8.98
2019-02-19T20:52:43.629Z,5.62
2019-02-19T20:55:13.207Z,6.47
2019-02-19T20:57:42.321Z,7.25
2019-02-19T21:00:14.500Z,6.25
2019-02-19T21:02:43.673Z,6.03
2019-02-19T21:05:12.965Z,5.78
2019-02-19T21:07:42.505Z,6.60
2019-02-19T21:10:14.159Z,6.58
2019-02-19T21:12:44.345Z,5.80
2019-02-19T21:15:13.831Z,7.47
2019-02-19T21:17:43.520Z,5.25
2019-02-19T21:20:12.700Z,6.40
2019-02-19T21:22:41.859Z,7.53
2019-02-19T21:25:11.456Z,7.35
2019-02-19T21:27:40.641Z,5.45
2019-02-19T21:30:16.367Z,5.83
2019-02-19T21:32:45.818Z,5.33
2019-02-19T21:35:15.617Z,6.35
2019-02-19T21:37:44.955Z,5.05
2019-02-19T21:40:17.259Z,6.62
2019-02-19T21:42:47.796Z,8.83
2019-02-19T21:45:16.872Z,4.22
2019-02-19T21:47:46.311Z,5.75
2019-02-19T21:50:15.910Z,6.40
2019-02-19T21:52:45.330Z,4.30
2019-02-19T21:55:14.392Z,5.42
2019-02-19T21:57:43.408Z,7.97
2019-02-19T22:00:15.844Z,4.50
2019-02-19T22:02:45.885Z,4.85
2019-02-19T22:05:15.366Z,6.92
2019-02-19T22:07:45.400Z,3.98
2019-02-19T22:10:17.161Z,5.83
2019-02-19T22:12:49.904Z,6.05
2019-02-19T22:15:19.271Z,4.20
2019-02-19T22:17:49.564Z,4.35
2019-02-19T22:20:25.000Z,5.80
2019-02-19T22:22:57.696Z,3.80
2019-02-19T22:25:26.999Z,5.45
2019-02-19T22:27:56.213Z,4.33
2019-02-19T22:30:25.494Z,5.12
2019-02-19T22:32:54.649Z,5.47
2019-02-19T22:35:23.919Z,3.95
2019-02-19T22:37:53.428Z,5.35
2019-02-19T22:40:22.917Z,3.70
2019-02-19T22:42:52.500Z,6.22
2019-02-19T22:45:21.137Z,4.62
2019-02-19T22:47:53.370Z,4.40
2019-02-19T22:50:20.259Z,4.25
2019-02-19T22:52:49.379Z,5.53
2019-02-19T22:55:27.053Z,5.20
2019-02-19T22:57:56.610Z,8.58
2019-02-19T23:00:49.800Z,5.55
2019-02-19T23:03:26.471Z,5.83
2019-02-19T23:05:55.639Z,3.50
2019-02-19T23:08:24.822Z,4.75
2019-02-19T23:10:54.067Z,6.40
2019-02-19T23:13:23.324Z,6.72
2019-02-19T23:15:53.415Z,6.08
2019-02-19T23:18:22.406Z,4.62
2019-02-19T23:20:51.588Z,5.87
2019-02-19T23:23:22.891Z,5.40
2019-02-19T23:25:54.668Z,4.00
2019-02-19T23:28:28.040Z,4.80
2019-02-19T23:30:57.466Z,4.12
2019-02-19T23:33:26.139Z,7.15
2019-02-19T23:35:56.399Z,11.73
2019-02-19T23:38:27.348Z,6.00
2019-02-19T23:43:47.867Z,4.40
2019-02-19T23:46:18.005Z,7.50
2019-02-19T23:48:47.603Z,4.35
2019-02-19T23:51:16.824Z,6.12
2019-02-19T23:53:46.558Z,4.00
2019-02-19T23:56:16.785Z,7.55
2019-02-19T23:58:45.907Z,7.12
